createdAt,value
2022-08-05T00:00:54.602Z,96.11
2022-08-05T00:01:54.641Z,95.91
2022-08-05T00:02:54.613Z,95.91
2022-08-05T00:03:54.509Z,94.94
2022-08-05T00:04:55.266Z,95.33
2022-08-05T00:06:05.235Z,95.43
2022-08-05T00:06:54.459Z,95.04
2022-08-05T00:08:00.425Z,94.94
2022-08-05T00:08:54.426Z,95.23
2022-08-05T00:09:54.621Z,95.62
2022-08-05T00:10:54.394Z,95.04
2022-08-05T00:11:56.048Z,94.74
2022-08-05T00:12:56.488Z,95.04
2022-08-05T00:13:54.349Z,95.43
2022-08-05T00:14:54.331Z,95.43
2022-08-05T00:16:00.195Z,95.91
2022-08-05T00:16:54.297Z,96.89
2022-08-05T00:17:54.279Z,96.79
2022-08-05T00:18:54.263Z,97.27
2022-08-05T00:20:01.743Z,97.47
2022-08-05T00:20:54.229Z,97.47
2022-08-05T00:21:54.256Z,97.61
2022-08-05T00:22:55.994Z,97.52
2022-08-05T00:24:10.791Z,97.42
2022-08-05T00:24:54.836Z,97.42
2022-08-05T00:25:54.146Z,96.64
2022-08-05T00:26:54.128Z,96.94
2022-08-05T00:27:54.111Z,96.06
2022-08-05T00:28:54.094Z,93.58
2022-08-05T00:29:54.077Z,93.68
2022-08-05T00:30:54.062Z,92.71
2022-08-05T00:32:13.012Z,92.90
2022-08-05T00:32:54.030Z,91.64
2022-08-05T00:34:54.291Z,91.83
2022-08-05T00:35:06.623Z,90.86
2022-08-05T00:36:16.273Z,90.71
2022-08-05T00:37:13.040Z,89.15
2022-08-05T00:37:54.243Z,89.64
2022-08-05T00:38:53.962Z,89.64
2022-08-05T00:39:58.706Z,89.74
2022-08-05T00:40:53.898Z,89.64
2022-08-05T00:41:55.445Z,90.08
2022-08-05T00:42:53.867Z,90.95
2022-08-05T00:43:53.849Z,91.78
2022-08-05T00:44:53.832Z,92.12
2022-08-05T00:45:53.816Z,93.48
2022-08-05T00:46:54.226Z,95.33
2022-08-05T00:47:57.713Z,96.01
2022-08-05T00:48:53.766Z,98.83
2022-08-05T00:49:53.750Z,99.99
2022-08-05T00:50:53.733Z,99.99
2022-08-05T00:51:53.718Z,99.99
2022-08-05T00:52:55.358Z,99.02
2022-08-05T00:54:02.294Z,99.22
2022-08-05T00:54:53.667Z,99.07
2022-08-05T00:55:53.651Z,96.36
2022-08-05T00:56:53.634Z,96.11
2022-08-05T00:57:55.349Z,96.31
2022-08-05T00:58:53.710Z,93.01
2022-08-05T00:59:53.584Z,89.18
2022-08-05T01:00:53.622Z,91.61
2022-08-05T01:01:53.588Z,92.77
2022-08-05T01:02:53.530Z,89.96
2022-08-05T01:03:53.515Z,89.33
2022-08-05T01:04:53.501Z,87.01
2022-08-05T01:05:54.600Z,90.11
2022-08-05T01:06:53.465Z,89.92
2022-08-05T01:08:42.232Z,90.69
2022-08-05T01:08:53.430Z,89.19
2022-08-05T01:09:55.540Z,93.84
2022-08-05T01:10:53.395Z,89.87
2022-08-05T01:11:53.379Z,92.14
2022-08-05T01:12:54.281Z,91.13
2022-08-05T01:13:57.695Z,93.35
2022-08-05T01:14:53.328Z,93.16
2022-08-05T01:15:53.315Z,95.78
2022-08-05T01:16:53.294Z,95.00
2022-08-05T01:17:53.706Z,97.42
2022-08-05T01:18:56.367Z,98.54
2022-08-05T01:20:01.964Z,96.36
2022-08-05T01:20:53.227Z,97.91
2022-08-05T01:21:53.258Z,98.00
2022-08-05T01:22:53.191Z,98.10
2022-08-05T01:23:53.300Z,99.55
2022-08-05T01:24:53.154Z,98.88
2022-08-05T01:25:54.015Z,98.78
2022-08-05T01:26:53.119Z,99.07
2022-08-05T01:27:55.454Z,98.00
2022-08-05T01:28:53.089Z,97.03
2022-08-05T01:29:53.067Z,98.49
2022-08-05T01:30:53.742Z,98.78
2022-08-05T01:31:53.030Z,98.49
2022-08-05T01:32:53.015Z,98.54
2022-08-05T01:33:53.605Z,97.08
2022-08-05T01:34:52.975Z,96.50
2022-08-05T01:35:53.379Z,95.05
2022-08-05T01:36:52.941Z,97.47
2022-08-05T01:37:52.923Z,95.73
2022-08-05T01:38:52.978Z,94.47
2022-08-05T01:39:52.930Z,94.28
2022-08-05T01:40:52.871Z,92.73
2022-08-05T01:41:52.853Z,95.92
2022-08-05T01:42:52.833Z,96.02
2022-08-05T01:43:52.819Z,94.86
2022-08-05T01:44:53.826Z,96.22
2022-08-05T01:45:55.211Z,94.76
2022-08-05T01:46:52.764Z,93.60
2022-08-05T01:47:54.504Z,95.29
2022-08-05T01:48:52.728Z,93.26
2022-08-05T01:50:02.309Z,95.25
2022-08-05T01:50:52.692Z,95.34
2022-08-05T01:51:52.675Z,95.59
2022-08-05T01:52:52.657Z,92.73
2022-08-05T01:53:57.781Z,93.12
2022-08-05T01:54:52.876Z,96.12
2022-08-05T01:55:52.602Z,96.22
2022-08-05T01:58:11.157Z,95.44
2022-08-05T01:58:13.192Z,95.34
2022-08-05T01:58:52.559Z,95.34
2022-08-05T01:59:52.593Z,96.70
2022-08-05T02:00:52.512Z,96.22
2022-08-05T02:01:52.598Z,95.64
2022-08-05T02:02:54.832Z,93.79
2022-08-05T02:03:52.461Z,96.89
2022-08-05T02:04:52.441Z,95.15
2022-08-05T02:05:57.772Z,95.25
2022-08-05T02:06:52.410Z,93.51
2022-08-05T02:08:01.442Z,92.15
2022-08-05T02:08:58.467Z,90.99
2022-08-05T02:09:52.352Z,92.49
2022-08-05T02:10:52.333Z,91.52
2022-08-05T02:11:52.825Z,91.24
2022-08-05T02:12:52.298Z,91.04
2022-08-05T02:13:53.769Z,91.24
2022-08-05T02:14:52.268Z,91.82
2022-08-05T02:15:52.249Z,92.20
2022-08-05T02:16:53.037Z,91.33
2022-08-05T02:18:31.307Z,90.36
2022-08-05T02:18:52.187Z,91.04
2022-08-05T02:19:52.172Z,90.56
2022-08-05T02:20:52.153Z,90.31
2022-08-05T02:21:52.135Z,89.69
2022-08-05T02:22:52.115Z,89.11
2022-08-05T02:23:52.101Z,89.97
2022-08-05T02:24:52.212Z,89.01
2022-08-05T02:25:52.066Z,88.81
2022-08-05T02:26:52.044Z,88.23
2022-08-05T02:27:58.190Z,89.69
2022-08-05T02:28:52.009Z,87.07
2022-08-05T02:29:58.770Z,87.17
2022-08-05T02:30:54.793Z,89.97
2022-08-05T02:31:51.957Z,88.91
2022-08-05T02:32:51.941Z,90.31
2022-08-05T02:33:57.236Z,91.24
2022-08-05T02:34:55.085Z,89.78
2022-08-05T02:35:57.533Z,89.78
2022-08-05T02:36:51.867Z,90.84
2022-08-05T02:37:54.008Z,89.39
2022-08-05T02:38:51.931Z,89.69
2022-08-05T02:39:51.920Z,89.49
2022-08-05T02:40:51.797Z,90.26
2022-08-05T02:42:00.980Z,89.78
2022-08-05T02:42:52.964Z,89.92
2022-08-05T02:44:02.679Z,88.81
2022-08-05T02:44:51.779Z,88.67
2022-08-05T02:45:53.822Z,89.88
2022-08-05T02:46:58.360Z,88.37
2022-08-05T02:48:06.748Z,88.53
2022-08-05T02:48:51.652Z,89.59
2022-08-05T02:49:51.634Z,89.39
2022-08-05T02:50:51.613Z,86.69
2022-08-05T02:52:03.655Z,85.62
2022-08-05T02:52:51.579Z,85.82
2022-08-05T02:53:54.893Z,84.56
2022-08-05T02:54:52.337Z,85.91
2022-08-05T02:55:53.778Z,87.85
2022-08-05T02:56:51.506Z,87.55
2022-08-05T02:58:11.486Z,87.07
2022-08-05T02:58:52.618Z,89.97
2022-08-05T02:59:52.029Z,90.84
2022-08-05T03:00:51.437Z,89.97
2022-08-05T03:01:51.466Z,89.69
2022-08-05T03:02:51.401Z,88.87
2022-08-05T03:04:03.430Z,88.62
2022-08-05T03:04:53.235Z,87.99
2022-08-05T03:06:54.923Z,88.13
2022-08-05T03:06:55.219Z,88.13
2022-08-05T03:08:07.313Z,87.71
2022-08-05T03:08:52.221Z,88.57
2022-08-05T03:09:52.016Z,88.19
2022-08-05T03:11:53.496Z,88.77
2022-08-05T03:11:54.671Z,87.81
2022-08-05T03:12:51.974Z,88.19
2022-08-05T03:14:03.174Z,88.19
2022-08-05T03:14:51.185Z,88.39
2022-08-05T03:15:51.163Z,88.67
2022-08-05T03:16:51.836Z,88.57
2022-08-05T03:17:54.101Z,89.83
2022-08-05T03:18:51.109Z,87.71
2022-08-05T03:19:51.092Z,89.54
2022-08-05T03:20:51.074Z,89.74
2022-08-05T03:21:51.055Z,90.90
2022-08-05T03:22:51.038Z,90.61
2022-08-05T03:23:51.020Z,91.48
2022-08-05T03:24:52.237Z,90.99
2022-08-05T03:26:04.598Z,89.98
2022-08-05T03:26:50.966Z,90.70
2022-08-05T03:27:59.755Z,90.27
2022-08-05T03:28:50.936Z,88.43
2022-08-05T03:30:08.806Z,89.79
2022-08-05T03:30:51.046Z,88.63
2022-08-05T03:31:56.132Z,90.85
2022-08-05T03:32:50.857Z,89.69
2022-08-05T03:33:52.920Z,89.01
2022-08-05T03:34:51.618Z,90.27
2022-08-05T03:35:50.802Z,91.24
2022-08-05T03:36:50.783Z,90.47
2022-08-05T03:37:50.764Z,91.14
2022-08-05T03:38:53.397Z,90.27
2022-08-05T03:39:58.473Z,89.89
2022-08-05T03:40:50.754Z,89.79
2022-08-05T03:41:52.694Z,89.11
2022-08-05T03:42:52.373Z,88.73
2022-08-05T03:44:08.123Z,86.99
2022-08-05T03:44:50.635Z,87.95
2022-08-05T03:45:57.861Z,87.27
2022-08-05T03:46:50.598Z,88.24
2022-08-05T03:47:50.578Z,86.51
2022-08-05T03:48:50.562Z,86.69
2022-08-05T03:49:51.832Z,86.69
2022-08-05T03:50:50.523Z,86.79
2022-08-05T03:52:36.559Z,85.53
2022-08-05T03:55:50.403Z,86.17
2022-08-05T03:55:51.035Z,85.73
2022-08-05T03:55:52.187Z,85.53
2022-08-05T03:56:11.922Z,85.05
2022-08-05T03:56:50.415Z,83.70
2022-08-05T03:57:50.474Z,84.33
2022-08-05T03:58:51.209Z,83.08
2022-08-05T03:59:54.738Z,83.85
2022-08-05T04:00:51.374Z,83.47
2022-08-05T04:01:50.392Z,83.47
2022-08-05T04:02:58.105Z,82.89
2022-08-05T04:04:05.458Z,80.47
2022-08-05T04:04:50.265Z,80.66
2022-08-05T04:05:50.246Z,80.76
2022-08-05T04:06:51.099Z,79.60
2022-08-05T04:07:57.338Z,80.38
2022-08-05T04:08:50.191Z,79.80
2022-08-05T04:09:53.100Z,78.54
2022-08-05T04:10:50.155Z,79.41
2022-08-05T04:11:52.519Z,80.38
2022-08-05T04:12:50.118Z,79.50
2022-08-05T04:13:53.433Z,78.83
2022-08-05T04:14:50.080Z,78.92
2022-08-05T04:15:52.659Z,77.44
2022-08-05T04:16:50.043Z,78.44
2022-08-05T04:17:57.247Z,78.11
2022-08-05T04:18:54.219Z,77.25
2022-08-05T04:19:54.420Z,76.80
2022-08-05T04:20:49.969Z,78.44
2022-08-05T04:22:09.258Z,78.83
2022-08-05T04:22:49.930Z,78.44
2022-08-05T04:24:05.433Z,77.67
2022-08-05T04:24:52.696Z,77.76
2022-08-05T04:25:57.168Z,77.48
2022-08-05T04:26:49.855Z,77.57
2022-08-05T04:27:58.839Z,78.83
2022-08-05T04:28:51.745Z,76.70
2022-08-05T04:29:49.796Z,74.77
2022-08-05T04:30:49.803Z,75.84
2022-08-05T04:31:49.829Z,75.54
2022-08-05T04:32:49.742Z,76.70
2022-08-05T04:34:18.874Z,76.70
2022-08-05T04:34:49.705Z,75.84
2022-08-05T04:36:11.219Z,75.16
2022-08-05T04:36:50.482Z,74.96
2022-08-05T04:38:02.783Z,74.38
2022-08-05T04:38:50.987Z,75.06
2022-08-05T04:39:52.652Z,75.06
2022-08-05T04:40:50.694Z,74.96
2022-08-05T04:41:50.884Z,74.68
2022-08-05T04:42:49.558Z,74.58
2022-08-05T04:43:52.798Z,74.71
2022-08-05T04:44:49.519Z,74.62
2022-08-05T04:45:55.611Z,74.90
2022-08-05T04:46:49.482Z,74.52
2022-08-05T04:47:49.463Z,74.52
2022-08-05T04:48:49.445Z,74.04
2022-08-05T04:50:03.040Z,72.68
2022-08-05T04:51:01.737Z,74.32
2022-08-05T04:51:49.390Z,73.74
2022-08-05T04:52:49.372Z,73.65
2022-08-05T04:53:49.352Z,74.71
2022-08-05T04:54:49.544Z,74.90
2022-08-05T04:56:14.835Z,77.80
2022-08-05T04:56:49.297Z,78.67
2022-08-05T04:57:54.026Z,78.67
2022-08-05T04:58:49.261Z,78.71
2022-08-05T04:59:49.238Z,79.35
2022-08-05T05:00:50.847Z,76.29
2022-08-05T05:02:35.712Z,76.26
2022-08-05T05:02:49.255Z,77.94
2022-08-05T05:03:49.165Z,76.10
2022-08-05T05:04:50.537Z,78.42
2022-08-05T05:06:39.273Z,77.94
2022-08-05T05:06:57.477Z,77.55
2022-08-05T05:07:56.203Z,78.81
2022-08-05T05:08:50.144Z,78.03
2022-08-05T05:09:49.054Z,79.29
2022-08-05T05:10:56.313Z,78.91
2022-08-05T05:11:55.682Z,78.13
2022-08-05T05:12:50.680Z,78.81
2022-08-05T05:13:48.979Z,78.71
2022-08-05T05:14:50.818Z,79.49
2022-08-05T05:15:57.032Z,79.49
2022-08-05T05:16:50.565Z,79.54
2022-08-05T05:17:56.658Z,78.91
2022-08-05T05:19:16.538Z,74.94
2022-08-05T05:19:48.873Z,75.97
2022-08-05T05:20:49.781Z,76.20
2022-08-05T05:21:48.834Z,77.51
2022-08-05T05:22:48.821Z,77.61
2022-08-05T05:24:03.862Z,77.61
2022-08-05T05:24:56.757Z,78.58
2022-08-05T05:25:48.760Z,79.06
2022-08-05T05:26:51.993Z,78.77
2022-08-05T05:27:55.746Z,79.25
2022-08-05T05:28:48.707Z,78.33
2022-08-05T05:30:04.081Z,78.67
2022-08-05T05:30:49.780Z,79.06
2022-08-05T05:31:48.657Z,79.10
2022-08-05T05:32:48.717Z,79.39
2022-08-05T05:33:58.870Z,78.42
2022-08-05T05:34:48.598Z,75.91
2022-08-05T05:35:48.583Z,77.51
2022-08-05T05:36:48.558Z,78.81
2022-08-05T05:37:59.856Z,79.10
2022-08-05T05:38:48.521Z,77.55
2022-08-05T05:39:48.626Z,77.84
2022-08-05T05:40:51.168Z,79.00
2022-08-05T05:41:54.436Z,79.68
2022-08-05T05:42:48.447Z,80.26
2022-08-05T05:43:57.906Z,80.16
2022-08-05T05:44:48.411Z,80.94
2022-08-05T05:45:48.551Z,80.46
2022-08-05T05:46:48.378Z,80.84
2022-08-05T05:48:07.007Z,81.32
2022-08-05T05:48:49.021Z,79.68
2022-08-05T05:49:56.606Z,79.58
2022-08-05T05:50:48.302Z,80.94
2022-08-05T05:51:50.006Z,79.78
2022-08-05T05:52:48.266Z,78.71
2022-08-05T05:53:58.287Z,79.68
2022-08-05T05:54:50.878Z,80.65
2022-08-05T05:55:51.637Z,81.56
2022-08-05T05:56:48.193Z,84.32
2022-08-05T05:57:52.705Z,83.59
2022-08-05T05:58:48.156Z,85.62
2022-08-05T05:59:48.804Z,87.17
2022-08-05T06:00:48.119Z,86.78
2022-08-05T06:01:57.724Z,86.01
2022-08-05T06:02:48.081Z,87.55
2022-08-05T06:04:00.614Z,86.78
2022-08-05T06:04:49.339Z,86.49
2022-08-05T06:05:53.974Z,86.69
2022-08-05T06:06:49.040Z,86.01
2022-08-05T06:07:58.048Z,86.59
2022-08-05T06:08:49.184Z,87.46
2022-08-05T06:10:00.012Z,86.59
2022-08-05T06:10:52.340Z,89.88
2022-08-05T06:12:01.713Z,89.39
2022-08-05T06:12:47.901Z,89.39
2022-08-05T06:13:53.691Z,91.04
2022-08-05T06:14:47.865Z,92.88
2022-08-05T06:16:29.280Z,90.94
2022-08-05T06:16:47.828Z,91.91
2022-08-05T06:17:53.340Z,91.08
2022-08-05T06:18:47.792Z,93.12
2022-08-05T06:19:57.114Z,93.79
2022-08-05T06:20:47.932Z,93.60
2022-08-05T06:21:49.746Z,93.45
2022-08-05T06:22:47.716Z,92.87
2022-08-05T06:23:49.794Z,93.84
2022-08-05T06:24:48.807Z,93.45
2022-08-05T06:26:13.462Z,94.90
2022-08-05T06:26:52.061Z,94.13
2022-08-05T06:28:11.467Z,92.68
2022-08-05T06:28:47.609Z,94.90
2022-08-05T06:30:04.231Z,94.42
2022-08-05T06:30:47.576Z,95.78
2022-08-05T06:31:47.555Z,97.62
2022-08-05T06:32:47.542Z,96.84
2022-08-05T06:34:08.025Z,96.75
2022-08-05T06:34:47.504Z,97.76
2022-08-05T06:36:05.767Z,94.81
2022-08-05T06:36:56.755Z,98.15
2022-08-05T06:37:56.225Z,97.57
2022-08-05T06:38:47.432Z,97.57
2022-08-05T06:39:47.455Z,97.08
2022-08-05T06:40:47.397Z,99.51
2022-08-05T06:41:47.378Z,97.67
2022-08-05T06:42:47.361Z,96.70
2022-08-05T06:43:51.494Z,97.38
2022-08-05T06:44:49.261Z,99.99
2022-08-05T06:46:03.842Z,99.99
2022-08-05T06:46:47.290Z,99.99
2022-08-05T06:48:47.116Z,99.99
2022-08-05T06:48:56.426Z,99.99
2022-08-05T06:50:00.619Z,99.99
2022-08-05T06:50:47.215Z,99.99
2022-08-05T06:51:47.196Z,99.99
2022-08-05T06:53:04.021Z,99.99
2022-08-05T06:53:53.653Z,99.99
2022-08-05T06:54:52.026Z,99.99
2022-08-05T06:55:47.124Z,99.99
2022-08-05T06:56:54.905Z,99.99
2022-08-05T06:57:58.140Z,99.99
2022-08-05T06:58:47.072Z,99.99
2022-08-05T06:59:55.114Z,99.99
2022-08-05T07:00:47.151Z,99.99
2022-08-05T07:01:47.049Z,99.99
2022-08-05T07:02:47.004Z,99.99
2022-08-05T07:03:46.981Z,99.99
2022-08-05T07:04:46.963Z,99.99
2022-08-05T07:05:46.949Z,99.99
2022-08-05T07:06:46.931Z,99.99
2022-08-05T07:07:46.910Z,99.99
2022-08-05T07:08:48.077Z,99.99
2022-08-05T07:09:46.874Z,99.99
2022-08-05T07:10:52.502Z,99.99
2022-08-05T07:11:51.576Z,99.99
2022-08-05T07:12:49.081Z,99.99
2022-08-05T07:13:58.698Z,99.99
2022-08-05T07:14:46.786Z,99.99
2022-08-05T07:16:01.075Z,99.99
2022-08-05T07:18:00.227Z,99.99
2022-08-05T07:18:02.048Z,99.99
2022-08-05T07:18:46.717Z,99.99
2022-08-05T07:20:31.296Z,99.99
2022-08-05T07:20:46.676Z,99.99
2022-08-05T07:22:00.422Z,99.99
2022-08-05T07:22:47.824Z,99.99
2022-08-05T07:23:50.040Z,99.99
2022-08-05T07:24:52.703Z,99.99
2022-08-05T07:25:54.841Z,99.99
2022-08-05T07:26:46.573Z,99.99
2022-08-05T07:27:57.793Z,99.99
2022-08-05T07:28:46.535Z,99.99
2022-08-05T07:30:27.436Z,99.99
2022-08-05T07:30:48.772Z,99.99
2022-08-05T07:31:54.988Z,99.99
2022-08-05T07:32:46.464Z,99.99
2022-08-05T07:33:46.447Z,99.99
2022-08-05T07:34:46.429Z,99.99
2022-08-05T07:36:03.518Z,99.99
2022-08-05T07:36:46.392Z,99.99
2022-08-05T07:37:47.324Z,99.99
2022-08-05T07:38:46.355Z,99.99
2022-08-05T07:40:25.973Z,99.99
2022-08-05T07:40:46.395Z,99.99
2022-08-05T07:42:13.354Z,99.99
2022-08-05T07:42:46.284Z,99.99
2022-08-05T07:43:46.267Z,99.99
2022-08-05T07:44:46.399Z,99.99
2022-08-05T07:45:58.242Z,99.99
2022-08-05T07:46:48.531Z,99.99
2022-08-05T07:47:46.197Z,99.99
2022-08-05T07:49:01.615Z,99.99
2022-08-05T07:49:54.611Z,99.99
2022-08-05T07:50:46.142Z,99.99
2022-08-05T07:51:53.320Z,99.99
2022-08-05T07:52:46.107Z,99.99
2022-08-05T07:53:50.598Z,99.99
2022-08-05T07:54:47.650Z,99.99
2022-08-05T07:56:05.359Z,99.99
2022-08-05T07:57:14.751Z,99.99
2022-08-05T07:57:58.833Z,99.99
2022-08-05T07:58:57.703Z,99.99
2022-08-05T07:59:46.916Z,99.99
2022-08-05T08:00:46.057Z,99.99
2022-08-05T08:01:52.067Z,99.99
2022-08-05T08:03:14.706Z,99.99
2022-08-05T08:03:45.920Z,99.99
2022-08-05T08:04:45.911Z,99.99
2022-08-05T08:05:49.622Z,99.99
2022-08-05T08:06:45.891Z,99.99
2022-08-05T08:07:59.235Z,99.99
2022-08-05T08:08:45.834Z,99.99
2022-08-05T08:09:45.820Z,99.99
2022-08-05T08:10:48.805Z,99.99
2022-08-05T08:11:48.162Z,99.99
2022-08-05T08:12:48.759Z,99.99
2022-08-05T08:14:00.839Z,99.99
2022-08-05T08:14:46.656Z,99.99
2022-08-05T08:16:34.948Z,99.99
2022-08-05T08:16:50.863Z,99.99
2022-08-05T08:17:50.552Z,99.99
2022-08-05T08:18:50.208Z,99.99
2022-08-05T08:20:21.204Z,99.99
2022-08-05T08:21:02.082Z,99.99
2022-08-05T08:21:45.613Z,99.99
2022-08-05T08:22:45.596Z,99.99
2022-08-05T08:24:03.357Z,99.99
2022-08-05T08:24:51.257Z,99.99
2022-08-05T08:26:00.654Z,99.99
2022-08-05T08:26:45.530Z,99.99
2022-08-05T08:27:47.903Z,99.99
2022-08-05T08:28:59.207Z,99.99
2022-08-05T08:30:03.656Z,99.99
2022-08-05T08:30:47.952Z,99.99
2022-08-05T08:31:45.442Z,99.99
2022-08-05T08:32:45.424Z,99.99
2022-08-05T08:33:45.411Z,99.99
2022-08-05T08:34:45.391Z,99.99
2022-08-05T08:35:52.817Z,99.99
2022-08-05T08:36:50.602Z,99.99
2022-08-05T08:37:45.342Z,99.99
2022-08-05T08:38:53.463Z,99.99
2022-08-05T08:39:49.737Z,99.99
2022-08-05T08:40:51.675Z,99.99
2022-08-05T08:41:51.857Z,99.99
2022-08-05T08:42:50.507Z,99.99
2022-08-05T08:45:18.291Z,99.99
2022-08-05T08:45:19.346Z,99.99
2022-08-05T08:45:45.212Z,99.99
2022-08-05T08:46:45.194Z,99.99
2022-08-05T08:48:05.880Z,99.80
2022-08-05T08:49:07.982Z,97.56
2022-08-05T08:50:07.631Z,98.73
2022-08-05T08:51:03.793Z,95.90
2022-08-05T08:52:02.929Z,94.20
2022-08-05T08:52:47.362Z,94.59
2022-08-05T08:53:45.456Z,92.06
2022-08-05T08:54:45.069Z,90.59
2022-08-05T08:56:04.250Z,92.06
2022-08-05T08:56:47.625Z,93.23
2022-08-05T08:57:58.148Z,93.18
2022-08-05T08:58:48.752Z,93.18
2022-08-05T08:59:47.463Z,93.37
2022-08-05T09:00:45.040Z,88.89
2022-08-05T09:01:44.958Z,89.28
2022-08-05T09:02:44.941Z,89.86
2022-08-05T09:03:45.631Z,91.77
2022-08-05T09:04:58.164Z,90.59
2022-08-05T09:06:07.391Z,90.59
2022-08-05T09:06:44.881Z,90.50
2022-08-05T09:07:57.330Z,92.06
2022-08-05T09:08:44.851Z,92.35
2022-08-05T09:09:44.836Z,90.59
2022-08-05T09:10:46.917Z,87.19
2022-08-05T09:11:50.748Z,86.36
2022-08-05T09:12:44.830Z,86.46
2022-08-05T09:14:00.623Z,88.80
2022-08-05T09:14:56.617Z,90.16
2022-08-05T09:15:44.746Z,89.87
2022-08-05T09:16:48.810Z,88.06
2022-08-05T09:17:49.422Z,89.62
2022-08-05T09:18:44.699Z,87.67
2022-08-05T09:20:01.734Z,88.45
2022-08-05T09:20:44.669Z,87.87
2022-08-05T09:22:22.849Z,85.72
2022-08-05T09:22:51.672Z,86.51
2022-08-05T09:23:44.624Z,87.09
2022-08-05T09:24:44.629Z,85.04
2022-08-05T09:26:02.327Z,83.97
2022-08-05T09:26:44.576Z,85.04
2022-08-05T09:28:04.775Z,87.77
2022-08-05T09:28:44.546Z,87.48
2022-08-05T09:29:44.796Z,86.90
2022-08-05T09:30:44.514Z,87.67
2022-08-05T09:32:40.771Z,88.26
2022-08-05T09:32:46.775Z,89.33
2022-08-05T09:33:44.467Z,87.13
2022-08-05T09:34:44.455Z,85.82
2022-08-05T09:35:44.436Z,87.09
2022-08-05T09:36:53.990Z,88.94
2022-08-05T09:38:12.539Z,90.11
2022-08-05T09:38:44.390Z,91.57
2022-08-05T09:39:45.124Z,89.28
2022-08-05T09:40:51.955Z,89.57
2022-08-05T09:41:44.343Z,90.54
2022-08-05T09:42:44.328Z,91.32
2022-08-05T09:43:44.315Z,89.18
2022-08-05T09:44:44.298Z,88.30
2022-08-05T09:46:07.605Z,88.65
2022-08-05T09:46:51.720Z,90.20
2022-08-05T09:47:55.496Z,92.35
2022-08-05T09:49:06.883Z,92.20
2022-08-05T09:50:00.909Z,90.25
2022-08-05T09:50:45.407Z,90.45
2022-08-05T09:51:44.193Z,90.49
2022-08-05T09:52:45.241Z,89.22
2022-08-05T09:53:53.225Z,90.14
2022-08-05T09:54:44.144Z,89.12
2022-08-05T09:55:57.944Z,87.90
2022-08-05T09:56:51.515Z,87.12
2022-08-05T09:57:44.099Z,85.56
2022-08-05T09:58:44.085Z,84.00
2022-08-05T09:59:44.070Z,85.75
2022-08-05T10:00:44.053Z,85.03
2022-08-05T10:01:45.759Z,86.44
2022-08-05T10:02:44.084Z,85.85
2022-08-05T10:03:58.843Z,88.39
2022-08-05T10:04:43.992Z,89.01
2022-08-05T10:05:43.977Z,87.02
2022-08-05T10:06:49.933Z,87.74
2022-08-05T10:08:10.680Z,88.62
2022-08-05T10:08:53.853Z,88.48
2022-08-05T10:09:44.935Z,87.26
2022-08-05T10:10:43.901Z,88.09
2022-08-05T10:11:43.886Z,86.29
2022-08-05T10:12:50.015Z,86.09
2022-08-05T10:13:48.324Z,85.11
2022-08-05T10:14:43.840Z,85.94
2022-08-05T10:15:43.827Z,86.62
2022-08-05T10:16:52.913Z,85.74
2022-08-05T10:17:54.412Z,83.89
2022-08-05T10:18:43.783Z,85.25
2022-08-05T10:19:59.192Z,85.74
2022-08-05T10:20:44.176Z,85.94
2022-08-05T10:21:43.738Z,86.43
2022-08-05T10:22:50.720Z,84.86
2022-08-05T10:23:59.799Z,85.25
2022-08-05T10:24:43.693Z,84.77
2022-08-05T10:25:43.679Z,85.10
2022-08-05T10:26:51.732Z,85.10
2022-08-05T10:28:13.774Z,84.51
2022-08-05T10:28:43.872Z,86.11
2022-08-05T10:30:41.046Z,83.92
2022-08-05T10:32:47.440Z,85.19
2022-08-05T10:32:54.990Z,83.63
2022-08-05T10:32:55.421Z,83.63
2022-08-05T10:33:43.561Z,83.63
2022-08-05T10:34:43.547Z,84.31
2022-08-05T10:35:44.361Z,84.75
2022-08-05T10:36:43.522Z,81.54
2022-08-05T10:37:45.100Z,84.28
2022-08-05T10:38:45.055Z,85.35
2022-08-05T10:40:03.639Z,85.39
2022-08-05T10:40:44.985Z,84.31
2022-08-05T10:41:44.934Z,82.50
2022-08-05T10:42:43.676Z,81.87
2022-08-05T10:43:43.423Z,81.72
2022-08-05T10:44:43.404Z,82.89
2022-08-05T10:45:43.392Z,82.01
2022-08-05T10:46:43.374Z,81.85
2022-08-05T10:47:56.091Z,81.37
2022-08-05T10:48:56.917Z,81.70
2022-08-05T10:49:48.858Z,80.62
2022-08-05T10:50:43.317Z,79.88
2022-08-05T10:51:57.788Z,75.48
2022-08-05T10:52:49.464Z,75.71
2022-08-05T10:53:45.328Z,78.94
2022-08-05T10:54:47.263Z,78.06
2022-08-05T10:56:05.324Z,78.68
2022-08-05T10:56:43.236Z,76.65
2022-08-05T10:57:44.701Z,75.96
2022-08-05T10:58:48.521Z,78.02
2022-08-05T11:00:04.430Z,78.02
2022-08-05T11:00:44.135Z,79.58
2022-08-05T11:02:02.876Z,76.90
2022-08-05T11:02:43.368Z,77.69
2022-08-05T11:03:43.179Z,78.61
2022-08-05T11:04:43.132Z,79.88
2022-08-05T11:05:43.119Z,78.96
2022-08-05T11:06:43.109Z,79.35
2022-08-05T11:08:02.405Z,80.23
2022-08-05T11:08:43.084Z,80.13
2022-08-05T11:09:46.291Z,77.16
2022-08-05T11:10:50.075Z,78.72
2022-08-05T11:11:52.050Z,79.61
2022-08-05T11:12:43.030Z,79.90
2022-08-05T11:13:55.134Z,81.01
2022-08-05T11:15:01.293Z,81.01
2022-08-05T11:16:00.920Z,80.04
2022-08-05T11:16:56.699Z,79.90
2022-08-05T11:18:07.686Z,78.86
2022-08-05T11:18:46.918Z,78.47
2022-08-05T11:20:10.449Z,78.86
2022-08-05T11:20:44.040Z,75.70
2022-08-05T11:21:48.946Z,75.79
2022-08-05T11:22:42.894Z,77.61
2022-08-05T11:24:04.528Z,78.30
2022-08-05T11:24:50.735Z,78.98
2022-08-05T11:26:04.136Z,79.90
2022-08-05T11:26:43.458Z,78.82
2022-08-05T11:27:51.755Z,77.39
2022-08-05T11:28:42.815Z,78.96
2022-08-05T11:29:42.800Z,77.04
2022-08-05T11:30:42.789Z,78.80
2022-08-05T11:31:56.519Z,80.17
2022-08-05T11:32:42.762Z,76.68
2022-08-05T11:33:46.390Z,75.32
2022-08-05T11:34:51.709Z,75.51
2022-08-05T11:35:44.633Z,75.02
2022-08-05T11:36:43.053Z,74.20
2022-08-05T11:38:28.240Z,75.87
2022-08-05T11:38:45.803Z,74.10
2022-08-05T11:39:42.734Z,74.98
2022-08-05T11:40:42.652Z,74.95
2022-08-05T11:41:58.139Z,76.16
2022-08-05T11:42:42.637Z,75.18
2022-08-05T11:44:04.763Z,73.26
2022-08-05T11:44:53.856Z,74.82
2022-08-05T11:46:27.134Z,72.18
2022-08-05T11:47:09.982Z,72.22
2022-08-05T11:47:49.569Z,73.59
2022-08-05T11:48:42.553Z,68.65
2022-08-05T11:49:42.842Z,69.64
2022-08-05T11:50:42.520Z,69.73
2022-08-05T11:51:44.556Z,72.77
2022-08-05T11:52:44.070Z,70.55
2022-08-05T11:53:42.476Z,71.83
2022-08-05T11:54:43.564Z,71.33
2022-08-05T11:55:42.452Z,71.76
2022-08-05T11:56:42.441Z,69.90
2022-08-05T11:58:10.356Z,70.48
2022-08-05T11:58:42.414Z,69.21
2022-08-05T11:59:50.197Z,68.23
2022-08-05T12:00:44.329Z,67.58
2022-08-05T12:01:42.374Z,67.94
2022-08-05T12:02:42.376Z,70.03
2022-08-05T12:03:42.398Z,70.72
2022-08-05T12:04:43.061Z,69.09
2022-08-05T12:05:43.510Z,69.31
2022-08-05T12:06:48.729Z,67.48
2022-08-05T12:08:09.216Z,65.12
2022-08-05T12:08:50.854Z,63.95
2022-08-05T12:09:53.318Z,65.12
2022-08-05T12:10:45.768Z,66.79
2022-08-05T12:11:42.249Z,65.71
2022-08-05T12:12:58.420Z,64.17
2022-08-05T12:13:49.670Z,63.95
2022-08-05T12:14:43.318Z,62.93
2022-08-05T12:15:42.199Z,64.37
2022-08-05T12:16:45.631Z,65.65
2022-08-05T12:18:10.131Z,64.83
2022-08-05T12:18:42.613Z,66.76
2022-08-05T12:20:27.062Z,67.84
2022-08-05T12:20:42.140Z,66.93
2022-08-05T12:21:42.128Z,68.43
2022-08-05T12:22:42.115Z,71.21
2022-08-05T12:23:43.217Z,69.05
2022-08-05T12:24:43.583Z,68.10
2022-08-05T12:25:42.078Z,66.69
2022-08-05T12:26:44.305Z,67.68
2022-08-05T12:27:53.167Z,66.53
2022-08-05T12:28:42.047Z,66.04
2022-08-05T12:29:42.032Z,65.45
2022-08-05T12:30:45.904Z,64.79
2022-08-05T12:31:48.262Z,64.76
2022-08-05T12:32:41.996Z,65.48
2022-08-05T12:33:43.256Z,64.57
2022-08-05T12:34:41.969Z,64.70
2022-08-05T12:35:43.103Z,67.45
2022-08-05T12:36:41.979Z,64.14
2022-08-05T12:37:41.933Z,64.70
2022-08-05T12:38:41.921Z,64.60
2022-08-05T12:39:41.994Z,63.10
2022-08-05T12:40:44.190Z,63.72
2022-08-05T12:41:43.827Z,64.31
2022-08-05T12:42:41.875Z,66.56
2022-08-05T12:43:41.862Z,64.01
2022-08-05T12:44:41.851Z,64.04
2022-08-05T12:45:48.281Z,65.94
2022-08-05T12:46:41.825Z,65.45
2022-08-05T12:47:43.460Z,62.51
2022-08-05T12:48:41.803Z,62.70
2022-08-05T12:50:04.854Z,62.90
2022-08-05T12:50:41.777Z,62.81
2022-08-05T12:52:12.687Z,63.23
2022-08-05T12:52:42.830Z,62.54